Argonne, Wisconsin
Current Conditions -  °F | °C
As of 1:50 AM on Tuesday 27 Jan 2015 (Local Time) from KEGV Reporting Station
Overcast Overcast  
Wind Chill: 20°   Ceiling: 900
Heat Index: 20°   Visibility: 10mi
Dew Point: 16°   Wind: 0mph
Humidity: 85%   Direction: NA
Pressure: 29.96"   Gusts: NA
Location:  45.66°N, 88.88°W
Report Text: KEGV 270750Z AUTO 00000KT 10SM OVC009 M07/M09 A2996 RMK AO2 T10671088
Loading
Personal Weather Stations






























Interactive Weather Map New forecast layout! Learn more

10-Day Weather Forecast

Advertisements
Track Severe Weather on mobile